Time;durP1;ratioP1;P1;durP2;ratioP2;P2;SDS_P1;SDS_P2;PMS_P1;PMS_P2;Temp;Humidity;BMP_temperature;BMP_pressure;BME280_temperature;BME280_humidity;BME280_pressure;Samples;Min_cycle;Max_cycle;Signal;HPM_P1;HPM_P2
2022/10/28 00:00:50;;;;;;;42.80;26.20;;;;;;;8.96;95.76;99577.48;106848;1297;22927;-80
2022/10/28 00:03:31;;;;;;;42.70;25.50;;;;;;;8.93;95.59;99574.88;106473;1310;139222;-80
2022/10/28 00:06:05;;;;;;;38.90;25.10;;;;;;;8.90;95.70;99574.88;106801;1286;22144;-80
2022/10/28 00:08:32;;;;;;;40.40;24.00;;;;;;;8.88;95.61;99578.64;106746;1302;138637;-79
2022/10/28 00:11:11;;;;;;;35.70;24.00;;;;;;;8.83;95.15;99582.98;106826;1302;22123;-79
2022/10/28 00:13:38;;;;;;;38.80;24.40;;;;;;;8.77;94.75;99581.08;106796;1302;22214;-79
2022/10/28 00:16:09;;;;;;;39.00;23.60;;;;;;;8.68;94.37;99580.73;106403;1289;138770;-79
2022/10/28 00:18:36;;;;;;;35.40;23.30;;;;;;;8.59;93.74;99579.44;106799;1279;22057;-79
2022/10/28 00:21:07;;;;;;;37.40;22.30;;;;;;;8.49;93.57;99578.73;106415;1310;138163;-79
2022/10/28 00:23:33;;;;;;;35.50;23.40;;;;;;;8.39;93.34;99581.68;106524;1310;22190;-79
2022/10/28 00:26:16;;;;;;;38.20;23.30;;;;;;;8.28;93.16;99580.47;106425;1302;138467;-79
2022/10/28 00:28:57;;;;;;;40.60;23.40;;;;;;;8.21;93.67;99580.23;106599;1310;22193;-80
2022/10/28 00:31:25;;;;;;;37.60;23.70;;;;;;;8.18;94.39;99574.88;106584;1310;22855;-80
2022/10/28 00:33:52;;;;;;;35.50;22.00;;;;;;;8.16;94.75;99568.02;106364;1305;138481;-80
2022/10/28 00:36:25;;;;;;;34.60;21.10;;;;;;;8.17;94.96;99563.77;106669;1292;22238;-80
2022/10/28 00:38:53;;;;;;;35.70;23.00;;;;;;;8.16;95.09;99562.39;106484;1310;138209;-80
2022/10/28 00:41:29;;;;;;;42.30;25.60;;;;;;;8.17;95.23;99559.48;106818;1300;22989;-77
2022/10/28 00:43:58;;;;;;;39.30;25.60;;;;;;;8.18;96.11;99557.46;106797;1286;23016;-77
2022/10/28 00:46:30;;;;;;;40.20;24.50;;;;;;;8.23;97.01;99558.66;106531;1310;22348;-77
2022/10/28 00:49:12;;;;;;;34.80;20.90;;;;;;;8.26;96.99;99555.21;106811;1302;22187;-77
2022/10/28 00:51:39;;;;;;;38.40;22.90;;;;;;;8.20;95.21;99554.22;106346;1310;138067;-77
2022/10/28 00:54:06;;;;;;;36.50;21.50;;;;;;;8.08;94.57;99552.45;106562;1310;22718;-77
2022/10/28 00:56:38;;;;;;;31.80;22.50;;;;;;;7.97;93.95;99554.58;106657;1288;138184;-77
2022/10/28 00:59:11;;;;;;;37.10;24.10;;;;;;;7.90;94.42;99556.42;106579;1310;22262;-77
2022/10/28 01:01:37;;;;;;;40.10;24.10;;;;;;;7.87;95.53;99548.69;106578;1296;22408;-77
2022/10/28 01:04:07;;;;;;;38.40;22.90;;;;;;;7.88;95.95;99546.09;106720;1303;138135;-77
2022/10/28 01:06:33;;;;;;;40.10;23.20;;;;;;;7.90;96.13;99541.31;106568;1298;22188;-77
2022/10/28 01:09:02;;;;;;;38.10;23.60;;;;;;;7.91;96.46;99535.88;106417;1310;137998;-77
2022/10/28 01:11:34;;;;;;;46.40;24.80;;;;;;;7.93;96.51;99534.33;106523;1306;22867;-77
2022/10/28 01:14:12;;;;;;;39.90;25.10;;;;;;;7.96;96.89;99533.59;106692;1302;138106;-77
2022/10/28 01:17:03;;;;;;;40.50;24.90;;;;;;;8.01;97.40;99530.97;106523;1310;22826;-77
2022/10/28 01:20:15;;;;;;;45.10;25.40;;;;;;;8.04;97.41;99529.45;106828;1303;23513;-77
2022/10/28 01:22:46;;;;;;;48.40;24.20;;;;;;;8.05;97.24;99533.70;106602;1310;22975;-77
2022/10/28 01:25:31;;;;;;;30.20;20.60;;;;;;;8.00;96.44;99535.04;106598;1310;22227;-77
2022/10/28 01:28:20;;;;;;;35.50;21.40;;;;;;;7.90;95.26;99534.63;106437;1298;138210;-77
2022/10/28 01:31:17;;;;;;;36.30;22.50;;;;;;;7.78;95.20;99527.48;105929;1317;22237;-78
2022/10/28 01:33:53;;;;;;;37.90;22.00;;;;;;;7.74;95.87;99525.96;106272;1308;138692;-77
2022/10/28 01:36:34;;;;;;;40.70;22.50;;;;;;;7.72;96.23;99520.95;105898;1317;23016;-77
2022/10/28 01:39:11;;;;;;;37.90;22.00;;;;;;;7.73;96.47;99516.73;105869;1301;138203;-77
2022/10/28 01:41:57;;;;;;;35.30;24.00;;;;;;;7.73;96.71;99514.52;106045;1316;23116;-77
2022/10/28 01:44:33;;;;;;;35.80;22.60;;;;;;;7.75;97.01;99510.11;105893;1316;138243;-77
2022/10/28 01:47:07;;;;;;;39.60;23.40;;;;;;;7.77;97.27;99511.50;106051;1316;22216;-77
2022/10/28 01:49:54;;;;;;;33.60;22.40;;;;;;;7.80;97.42;99506.77;105970;1301;23401;-77
2022/10/28 01:52:25;;;;;;;38.40;22.90;;;;;;;7.83;97.68;99508.15;106239;1294;138015;-77
2022/10/28 01:55:14;;;;;;;34.20;21.10;;;;;;;7.86;97.90;99508.58;106375;1308;22302;-77
2022/10/28 01:57:42;;;;;;;35.10;21.50;;;;;;;7.89;98.25;99508.73;105784;1318;138076;-77
2022/10/28 02:00:09;;;;;;;50.10;23.50;;;;;;;7.83;96.53;99509.70;106020;1298;23003;-77
2022/10/28 02:02:42;;;;;;;44.50;21.60;;;;;;;7.70;95.16;99504.84;106293;1298;138689;-77
2022/10/28 02:05:36;;;;;;;31.60;21.10;;;;;;;7.61;95.14;99498.18;106425;1308;22311;-77
2022/10/28 02:08:16;;;;;;;40.70;22.70;;;;;;;7.56;95.73;99490.58;106563;1302;22349;-77
2022/10/28 02:10:52;;;;;;;39.50;22.70;;;;;;;7.53;95.65;99496.69;106513;1304;22242;-77
2022/10/28 02:13:24;;;;;;;24.80;18.50;;;;;;;7.50;95.84;99490.73;106527;1310;22334;-77
2022/10/28 02:16:10;;;;;;;36.60;21.60;;;;;;;7.50;96.03;99490.79;106396;1310;138209;-77
2022/10/28 02:18:47;;;;;;;31.60;19.80;;;;;;;7.49;96.10;99483.36;106498;1296;22938;-77
2022/10/28 02:21:26;;;;;;;30.90;18.90;;;;;;;7.49;96.55;99478.98;106401;1310;138588;-77
2022/10/28 02:24:18;;;;;;;29.50;19.70;;;;;;;7.51;97.10;99477.45;106524;1310;23104;-77
2022/10/28 02:27:07;;;;;;;31.90;19.00;;;;;;;7.53;97.51;99472.29;106451;1310;138437;-77
2022/10/28 02:29:44;;;;;;;29.60;19.30;;;;;;;7.56;97.55;99469.76;106540;1296;22086;-77
2022/10/28 02:32:16;;;;;;;51.70;19.90;;;;;;;7.56;97.41;99467.75;106521;1310;138708;-77
2022/10/28 02:34:46;;;;;;;33.00;18.10;;;;;;;7.53;97.02;99466.13;106609;1310;22135;-77
2022/10/28 02:37:21;;;;;;;29.00;18.50;;;;;;;7.51;96.66;99466.85;106607;1310;22314;-77
2022/10/28 02:39:52;;;;;;;28.00;18.90;;;;;;;7.46;96.48;99459.84;106459;1298;138401;-77
2022/10/28 02:42:23;;;;;;;30.60;17.80;;;;;;;7.46;97.12;99464.76;106553;1295;22156;-77
2022/10/28 02:45:07;;;;;;;41.30;18.80;;;;;;;7.46;97.28;99466.21;106460;1310;138697;-77
2022/10/28 02:47:39;;;;;;;40.80;18.80;;;;;;;7.45;97.15;99470.37;106527;1310;22192;-77
2022/10/28 02:50:11;;;;;;;34.20;17.60;;;;;;;7.43;97.20;99466.43;106453;1298;22049;-78
2022/10/28 02:52:41;;;;;;;31.80;18.40;;;;;;;7.44;97.87;99467.77;106451;1310;22282;-77
2022/10/28 02:55:09;;;;;;;30.20;19.40;;;;;;;7.45;98.12;99461.70;106613;1310;22298;-77
2022/10/28 02:57:40;;;;;;;32.80;20.70;;;;;;;7.48;98.61;99455.33;106760;1303;138545;-77
2022/10/28 03:00:09;;;;;;;28.00;18.60;;;;;;;7.51;98.79;99457.57;106599;1299;22120;-77
2022/10/28 03:02:35;;;;;;;;;;;;;;;7.55;99.17;99458.55;106387;1311;139479;-77
2022/10/28 03:05:04;;;;;;;29.20;19.40;;;;;;;7.58;99.33;99454.18;106572;1310;22088;-78
2022/10/28 03:07:30;;;;;;;30.30;18.60;;;;;;;7.61;99.58;99454.68;106443;1311;22187;-77
2022/10/28 03:09:56;;;;;;;31.20;19.90;;;;;;;7.65;99.32;99450.70;106394;1298;138243;-77
2022/10/28 03:12:22;;;;;;;27.10;17.10;;;;;;;7.68;99.44;99451.60;106511;1310;22253;-77
2022/10/28 03:14:48;;;;;;;25.50;17.50;;;;;;;7.62;97.59;99453.70;106432;1310;138381;-77
2022/10/28 03:17:16;;;;;;;27.90;19.40;;;;;;;7.54;96.74;99450.04;106571;1310;22096;-77
2022/10/28 03:19:42;;;;;;;27.50;19.40;;;;;;;7.51;97.38;99449.16;106472;1306;23141;-77
2022/10/28 03:22:09;;;;;;;29.50;19.40;;;;;;;7.50;98.27;99446.38;106480;1295;138140;-77
2022/10/28 03:24:35;;;;;;;31.70;20.20;;;;;;;7.51;98.58;99447.05;106612;1310;22092;-77
2022/10/28 03:27:01;;;;;;;27.10;18.70;;;;;;;7.54;98.78;99448.25;106515;1310;138270;-77
2022/10/28 03:29:27;;;;;;;29.90;18.90;;;;;;;7.54;98.84;99449.38;106590;1310;22344;-77
2022/10/28 03:31:53;;;;;;;31.70;19.40;;;;;;;7.57;99.02;99453.96;106509;1310;23073;-77
2022/10/28 03:34:19;;;;;;;30.10;18.90;;;;;;;7.55;98.64;99446.87;106336;1312;138240;-77
2022/10/28 03:36:45;;;;;;;27.30;18.30;;;;;;;7.57;98.84;99456.67;106585;1310;22119;-77
2022/10/28 03:39:13;;;;;;;32.40;20.60;;;;;;;7.56;98.60;99457.85;106371;1312;138233;-78
2022/10/28 03:41:42;;;;;;;25.40;18.20;;;;;;;7.53;97.80;99458.11;106584;1295;22104;-77
2022/10/28 03:44:08;;;;;;;28.60;18.30;;;;;;;7.47;97.06;99453.62;106617;1309;22278;-77
2022/10/28 03:46:34;;;;;;;26.00;18.30;;;;;;;7.44;97.46;99448.42;106882;1303;22819;-77
2022/10/28 03:49:00;;;;;;;28.40;17.20;;;;;;;7.43;97.66;99450.05;106568;1310;22920;-77
2022/10/28 03:51:26;;;;;;;29.40;17.10;;;;;;;7.39;97.41;99450.78;106460;1298;138244;-77
2022/10/28 03:53:52;;;;;;;28.50;17.70;;;;;;;7.33;96.96;99443.16;106529;1305;22325;-77
2022/10/28 03:56:21;;;;;;;26.30;17.10;;;;;;;7.28;96.95;99442.27;106472;1297;138092;-77
2022/10/28 03:58:48;;;;;;;27.40;18.10;;;;;;;7.27;97.11;99439.09;106575;1310;22162;-77
2022/10/28 04:01:14;;;;;;;26.70;17.90;;;;;;;7.26;97.28;99428.77;106588;1293;22961;-77
2022/10/28 04:03:40;;;;;;;25.50;17.20;;;;;;;7.25;97.54;99428.81;106492;1292;138156;-78
2022/10/28 04:06:08;;;;;;;27.80;17.90;;;;;;;7.26;97.81;99433.92;106569;1310;22288;-77
2022/10/28 04:08:36;;;;;;;28.50;16.90;;;;;;;7.28;98.23;99436.92;106465;1310;138613;-77
2022/10/28 04:11:02;;;;;;;27.90;15.30;;;;;;;7.23;97.00;99437.39;106546;1297;23232;-77
2022/10/28 04:13:28;;;;;;;26.10;16.30;;;;;;;7.10;94.81;99441.72;106476;1311;22206;-77
2022/10/28 04:15:57;;;;;;;29.00;18.20;;;;;;;6.96;94.53;99442.88;106405;1310;138031;-77
2022/10/28 04:18:23;;;;;;;24.00;14.10;;;;;;;6.83;94.16;99442.36;106564;1310;21977;-77
2022/10/28 04:20:50;;;;;;;26.50;16.50;;;;;;;6.70;94.33;99440.63;106444;1310;138517;-77
2022/10/28 04:23:17;;;;;;;23.40;15.60;;;;;;;6.62;95.03;99439.44;106569;1295;22281;-77
2022/10/28 04:25:43;;;;;;;24.60;14.70;;;;;;;6.57;95.25;99427.08;106547;1310;22211;-77
2022/10/28 04:28:12;;;;;;;21.60;15.50;;;;;;;6.54;95.65;99422.23;106435;1310;137945;-77
2022/10/28 04:30:39;;;;;;;24.40;15.60;;;;;;;6.53;95.83;99424.80;106486;1302;22170;-77
2022/10/28 04:33:05;;;;;;;21.30;15.10;;;;;;;6.57;97.29;99424.83;106442;1296;138261;-77
2022/10/28 04:35:31;;;;;;;25.30;16.60;;;;;;;6.68;99.16;99421.55;106565;1307;22180;-77
2022/10/28 04:37:57;;;;;;;27.70;18.00;;;;;;;6.74;98.69;99416.14;106830;1303;22218;-77
2022/10/28 04:40:23;;;;;;;26.90;17.70;;;;;;;6.76;97.91;99410.23;106380;1310;138789;-77
2022/10/28 04:42:49;;;;;;;24.80;16.60;;;;;;;6.75;97.70;99400.32;106798;1302;22102;-77
2022/10/28 04:45:15;;;;;;;30.60;16.50;;;;;;;6.77;97.76;99407.38;106420;1310;138503;-77
2022/10/28 04:47:41;;;;;;;29.60;17.70;;;;;;;6.80;98.71;99413.65;106566;1312;22102;-77
2022/10/28 04:50:08;;;;;;;44.60;20.60;;;;;;;6.78;98.17;99408.26;106538;1311;22165;-77
2022/10/28 04:52:34;;;;;;;25.70;15.50;;;;;;;6.75;97.63;99416.90;106387;1295;138041;-77
2022/10/28 04:55:00;;;;;;;31.70;18.60;;;;;;;6.70;96.97;99414.82;106482;1304;22185;-77
2022/10/28 04:57:26;;;;;;;33.10;18.90;;;;;;;6.64;96.94;99411.91;106720;1303;138201;-77
2022/10/28 04:59:53;;;;;;;25.00;16.00;;;;;;;6.62;97.03;99404.23;106588;1310;22189;-77
2022/10/28 05:02:23;;;;;;;25.00;15.80;;;;;;;6.62;97.41;99398.23;106698;1289;138465;-77
2022/10/28 05:04:49;;;;;;;;;;;;;;;6.63;97.91;99396.86;106536;1312;22351;-77
2022/10/28 05:07:15;;;;;;;25.40;16.90;;;;;;;6.64;98.36;99399.58;106526;1312;22253;-77
2022/10/28 05:09:41;;;;;;;27.30;16.80;;;;;;;6.66;98.53;99400.64;106407;1312;137977;-77
2022/10/28 05:12:07;;;;;;;29.10;16.70;;;;;;;6.69;98.93;99404.56;106495;1306;22397;-77
2022/10/28 05:14:33;;;;;;;23.80;17.00;;;;;;;6.72;99.01;99409.50;106468;1295;138305;-77
2022/10/28 05:17:00;;;;;;;22.50;17.20;;;;;;;6.75;99.16;99415.69;106556;1310;22209;-77
2022/10/28 05:19:26;;;;;;;24.60;16.30;;;;;;;6.79;99.68;99412.77;106586;1309;22131;-77
2022/10/28 05:21:52;;;;;;;22.80;15.60;;;;;;;6.80;99.50;99409.11;106468;1309;138291;-77
2022/10/28 05:24:18;;;;;;;26.80;16.30;;;;;;;6.83;99.75;99415.30;106522;1296;22163;-77
2022/10/28 05:26:44;;;;;;;24.70;17.10;;;;;;;6.86;99.74;99414.12;106402;1312;138278;-77
2022/10/28 05:29:10;;;;;;;26.10;16.60;;;;;;;6.91;99.87;99407.80;106581;1303;22208;-77
2022/10/28 05:31:36;;;;;;;26.70;16.80;;;;;;;6.93;99.95;99402.38;106556;1307;22232;-77
2022/10/28 05:34:02;;;;;;;25.40;17.50;;;;;;;6.99;99.99;99400.16;106407;1296;138719;-77
2022/10/28 05:36:28;;;;;;;27.60;18.60;;;;;;;7.05;100.00;99398.54;106517;1312;22883;-77
2022/10/28 05:38:54;;;;;;;30.80;17.60;;;;;;;7.14;100.00;99399.51;106683;1290;138229;-77
2022/10/28 05:41:20;;;;;;;25.50;17.40;;;;;;;7.22;100.00;99402.05;106540;1309;23118;-77
2022/10/28 05:43:47;;;;;;;27.90;17.20;;;;;;;7.30;100.00;99398.38;106504;1295;22250;-76
2022/10/28 05:46:13;;;;;;;25.40;17.50;;;;;;;7.37;100.00;99396.42;106372;1304;138183;-77
2022/10/28 05:48:39;;;;;;;32.10;19.00;;;;;;;7.43;100.00;99397.61;106543;1309;22259;-76
2022/10/28 05:51:05;;;;;;;29.90;16.60;;;;;;;7.47;100.00;99399.38;106433;1310;138532;-76
2022/10/28 05:53:31;;;;;;;28.10;17.40;;;;;;;7.48;99.88;99409.35;106466;1297;23251;-77
2022/10/28 05:55:57;;;;;;;20.00;14.40;;;;;;;7.42;99.05;99405.86;106521;1311;22230;-77
2022/10/28 05:58:23;;;;;;;26.00;17.10;;;;;;;7.48;100.00;99409.27;106401;1311;138171;-77
2022/10/28 06:00:49;;;;;;;27.90;17.00;;;;;;;7.51;99.82;99411.91;106772;1302;22140;-77
2022/10/28 06:03:16;;;;;;;24.90;16.50;;;;;;;7.51;98.99;99405.06;106407;1288;139110;-76
2022/10/28 06:05:43;;;;;;;26.90;15.50;;;;;;;7.52;98.92;99400.36;106488;1310;23141;-76
2022/10/28 06:08:11;;;;;;;21.40;15.80;;;;;;;7.54;99.03;99396.66;106603;1310;22916;-76
2022/10/28 06:10:38;;;;;;;19.30;14.10;;;;;;;7.61;99.68;99391.80;106800;1303;22043;-77
2022/10/28 06:13:04;;;;;;;17.20;12.40;;;;;;;7.66;99.54;99391.65;106477;1310;22283;-77
2022/10/28 06:15:31;;;;;;;19.50;14.00;;;;;;;7.73;99.83;99394.27;106412;1298;138316;-77
2022/10/28 06:17:57;;;;;;;32.80;17.10;;;;;;;7.78;99.55;99396.23;106553;1310;22960;-77
2022/10/28 06:20:23;;;;;;;31.80;18.30;;;;;;;7.79;98.59;99392.32;106661;1291;139549;-76
2022/10/28 06:22:50;;;;;;;28.70;16.10;;;;;;;7.78;98.13;99389.30;106474;1311;22327;-77
2022/10/28 06:25:18;;;;;;;33.80;16.80;;;;;;;7.76;97.61;99388.48;106507;1300;22424;-77
2022/10/28 06:27:44;;;;;;;32.10;17.50;;;;;;;7.74;96.77;99393.73;106381;1309;138201;-78
2022/10/28 06:30:11;;;;;;;33.50;17.50;;;;;;;7.69;96.30;99402.80;106781;1298;22308;-77
2022/10/28 06:32:37;;;;;;;28.50;17.60;;;;;;;7.66;95.76;99402.71;106430;1310;138292;-77
2022/10/28 06:35:03;;;;;;;38.70;18.50;;;;;;;7.59;94.76;99406.68;106463;1298;22306;-77
2022/10/28 06:37:30;;;;;;;29.80;16.60;;;;;;;7.55;95.11;99407.87;106526;1293;22087;-77
2022/10/28 06:39:57;;;;;;;31.50;15.60;;;;;;;7.55;95.79;99412.38;106374;1295;138045;-76
2022/10/28 06:42:23;;;;;;;36.00;16.50;;;;;;;7.56;96.30;99413.71;106568;1309;22132;-77
2022/10/28 06:44:50;;;;;;;33.80;15.80;;;;;;;7.58;96.76;99405.51;106443;1296;138088;-77
2022/10/28 06:47:17;;;;;;;26.60;15.40;;;;;;;7.62;96.85;99408.20;106602;1310;22106;-76
2022/10/28 06:49:43;;;;;;;24.70;13.80;;;;;;;7.67;97.31;99409.01;106523;1310;22101;-77
2022/10/28 06:52:09;;;;;;;22.70;13.90;;;;;;;7.74;97.79;99404.19;106751;1303;138149;-76
2022/10/28 06:54:35;;;;;;;23.60;13.80;;;;;;;7.81;97.82;99411.02;106804;1303;22135;-76
2022/10/28 06:57:01;;;;;;;25.40;13.50;;;;;;;7.88;98.05;99414.52;106698;1288;138029;-77
2022/10/28 06:59:27;;;;;;;28.80;13.40;;;;;;;7.93;98.35;99410.47;106555;1304;22205;-77
2022/10/28 07:01:54;;;;;;;24.40;13.30;;;;;;;8.01;98.34;99411.21;106587;1309;22395;-77
2022/10/28 07:04:20;;;;;;;22.40;13.60;;;;;;;8.08;98.56;99409.96;106491;1294;138167;-76
2022/10/28 07:06:46;;;;;;;21.00;12.70;;;;;;;8.16;98.62;99417.05;106519;1311;23031;-77
2022/10/28 07:09:13;;;;;;;18.70;12.20;;;;;;;8.24;98.76;99417.34;106410;1306;138346;-77
2022/10/28 07:11:42;;;;;;;23.70;14.00;;;;;;;8.33;98.75;99421.17;106631;1299;22226;-77
2022/10/28 07:14:09;;;;;;;22.70;13.20;;;;;;;8.40;98.52;99421.79;106791;1291;23370;-77
2022/10/28 07:16:36;;;;;;;22.70;13.30;;;;;;;8.47;98.42;99424.00;106752;1289;22197;-77
2022/10/28 07:19:02;;;;;;;16.10;12.30;;;;;;;8.54;98.64;99419.34;106435;1312;22149;-77
2022/10/28 07:21:28;;;;;;;27.70;13.50;;;;;;;8.62;98.63;99415.36;106696;1302;138662;-77
2022/10/28 07:23:55;;;;;;;17.60;12.40;;;;;;;8.70;98.55;99413.58;106461;1312;22178;-77
2022/10/28 07:26:22;;;;;;;24.20;13.20;;;;;;;8.77;98.29;99414.62;106444;1296;138412;-77
2022/10/28 07:28:48;;;;;;;24.30;12.90;;;;;;;8.84;98.52;99416.23;106575;1311;22204;-76
2022/10/28 07:31:15;;;;;;;24.40;12.80;;;;;;;8.89;98.20;99418.36;106608;1307;22114;-77
2022/10/28 07:33:41;;;;;;;21.90;11.70;;;;;;;8.93;98.08;99420.95;106693;1303;138309;-77
2022/10/28 07:36:08;;;;;;;21.30;12.60;;;;;;;8.97;97.77;99420.58;106540;1297;22968;-76
2022/10/28 07:38:34;;;;;;;17.40;11.20;;;;;;;9.02;97.89;99420.48;106441;1311;138818;-76
2022/10/28 07:41:06;;;;;;;20.90;12.60;;;;;;;9.07;97.91;99418.10;106558;1311;22112;-77
2022/10/28 07:43:38;;;;;;;26.60;12.80;;;;;;;9.13;97.93;99419.30;106511;1312;22350;-76
2022/10/28 07:46:06;;;;;;;23.30;12.70;;;;;;;9.19;97.71;99425.23;106437;1296;138217;-77
2022/10/28 07:48:33;;;;;;;23.20;13.20;;;;;;;9.24;97.80;99428.34;106618;1311;22124;-77
2022/10/28 07:51:00;;;;;;;27.80;13.80;;;;;;;9.31;97.90;99421.73;106419;1311;138570;-76
2022/10/28 07:53:27;;;;;;;23.20;13.00;;;;;;;9.38;97.80;99423.02;106606;1302;22076;-77
2022/10/28 07:56:01;;;;;;;31.30;13.30;;;;;;;9.46;98.04;99421.98;106573;1297;22585;-76
2022/10/28 07:58:28;;;;;;;26.50;13.00;;;;;;;9.55;97.85;99418.56;106417;1306;138043;-76
2022/10/28 08:00:54;;;;;;;21.80;13.70;;;;;;;9.64;97.63;99422.38;106397;1312;22730;-76
2022/10/28 08:03:23;;;;;;;28.10;13.30;;;;;;;9.75;97.81;99421.78;106398;1312;138283;-76
2022/10/28 08:05:49;;;;;;;22.20;13.00;;;;;;;9.85;97.46;99423.46;106540;1309;22411;-76
2022/10/28 08:08:16;;;;;;;20.40;12.30;;;;;;;9.96;97.67;99421.95;106512;1310;138329;-76
2022/10/28 08:10:42;;;;;;;21.60;11.60;;;;;;;10.07;97.53;99421.05;106595;1310;22264;-76
2022/10/28 08:13:09;;;;;;;15.40;10.80;;;;;;;10.19;97.35;99414.83;106606;1310;22317;-76
2022/10/28 08:15:35;;;;;;;16.20;11.10;;;;;;;10.30;97.19;99414.55;106497;1299;138348;-76
2022/10/28 08:18:02;;;;;;;18.20;11.00;;;;;;;10.41;96.97;99414.24;106852;1303;22854;-76
2022/10/28 08:20:28;;;;;;;14.00;9.40;;;;;;;10.53;96.95;99412.23;106719;1294;138975;-75
2022/10/28 08:22:54;;;;;;;19.50;10.40;;;;;;;10.67;97.19;99408.47;106557;1311;22247;-75
2022/10/28 08:25:20;;;;;;;17.50;11.80;;;;;;;10.87;97.10;99404.48;106579;1312;22109;-75
2022/10/28 08:27:46;;;;;;;19.10;9.60;;;;;;;11.09;97.00;99404.95;106440;1298;138354;-75
2022/10/28 08:30:12;;;;;;;15.60;10.70;;;;;;;11.30;96.48;99406.71;106561;1300;22263;-75
2022/10/28 08:32:39;;;;;;;15.90;10.60;;;;;;;11.47;95.73;99406.02;106467;1293;138804;-75
2022/10/28 08:35:05;;;;;;;18.30;10.60;;;;;;;11.61;95.56;99401.98;106629;1312;22889;-76
2022/10/28 08:37:31;;;;;;;19.00;10.80;;;;;;;11.76;94.88;99401.67;106598;1299;22181;-76
2022/10/28 08:39:57;;;;;;;21.70;13.40;;;;;;;11.88;94.78;99402.73;106754;1303;138368;-76
2022/10/28 08:42:46;;;;;;;23.60;13.70;;;;;;;11.99;94.25;99398.38;106603;1301;22076;-76
2022/10/28 08:45:33;;;;;;;17.20;11.70;;;;;;;12.12;94.08;99391.36;106751;1288;138391;-76
2022/10/28 08:48:01;;;;;;;21.10;13.60;;;;;;;12.25;94.03;99392.25;106558;1298;22786;-76
2022/10/28 08:50:30;;;;;;;16.30;12.20;;;;;;;12.37;93.86;99391.83;106485;1312;138904;-76
2022/10/28 08:53:11;;;;;;;19.40;14.30;;;;;;;12.48;93.32;99395.61;106484;1307;22268;-76
2022/10/28 08:55:43;;;;;;;23.20;14.00;;;;;;;12.61;93.23;99391.57;106493;1310;22096;-76
2022/10/28 08:58:20;;;;;;;20.50;12.20;;;;;;;12.72;92.83;99388.45;106371;1299;138360;-76
2022/10/28 09:00:52;;;;;;;21.00;13.10;;;;;;;12.83;92.34;99382.96;106552;1311;22132;-76
2022/10/28 09:03:47;;;;;;;20.60;13.40;;;;;;;12.93;92.10;99382.45;106491;1311;138390;-76
2022/10/28 09:06:13;;;;;;;19.00;12.10;;;;;;;13.07;91.82;99380.94;106609;1311;22870;-75
2022/10/28 09:08:43;;;;;;;24.30;13.30;;;;;;;13.16;91.63;99383.45;106441;1301;138444;-76
2022/10/28 09:11:09;;;;;;;17.20;12.70;;;;;;;13.28;91.63;99381.30;106505;1310;22373;-76
2022/10/28 09:13:54;;;;;;;26.30;13.10;;;;;;;13.39;91.24;99378.89;106511;1311;22125;-76
2022/10/28 09:16:43;;;;;;;20.40;13.30;;;;;;;13.52;90.99;99384.48;106720;1295;138929;-76
2022/10/28 09:19:32;;;;;;;18.50;11.90;;;;;;;13.65;90.68;99386.34;106616;1295;22097;-76
2022/10/28 09:22:15;;;;;;;20.70;12.20;;;;;;;13.78;90.20;99387.98;106384;1310;138481;-75
2022/10/28 09:25:02;;;;;;;18.40;11.70;;;;;;;13.89;89.16;99382.06;106866;1295;22811;-76
2022/10/28 09:27:28;;;;;;;19.80;11.60;;;;;;;13.99;88.69;99380.16;106440;1298;138372;-76
2022/10/28 09:30:09;;;;;;;16.10;11.30;;;;;;;14.08;88.09;99378.95;106432;1312;22717;-76
2022/10/28 09:32:44;;;;;;;17.70;11.60;;;;;;;14.17;87.78;99378.70;106441;1309;138672;-76
2022/10/28 09:35:20;;;;;;;18.50;11.30;;;;;;;14.29;87.25;99376.71;106370;1312;246110;-76
2022/10/28 09:37:58;;;;;;;17.50;12.10;;;;;;;14.37;86.82;99375.66;106825;1292;22265;-76
2022/10/28 09:40:28;;;;;;;18.20;11.00;;;;;;;14.46;86.49;99375.04;106487;1311;138388;-75
2022/10/28 09:43:19;;;;;;;17.90;11.50;;;;;;;14.56;86.33;99370.45;106516;1313;22097;-76
2022/10/28 09:45:49;;;;;;;18.40;12.10;;;;;;;14.69;85.98;99371.05;106513;1312;138513;-76
2022/10/28 09:48:23;;;;;;;21.70;11.50;;;;;;;14.80;86.26;99367.02;106475;1312;22290;-76
2022/10/28 09:50:52;;;;;;;18.50;11.90;;;;;;;14.93;86.16;99368.03;106461;1312;138784;-76
2022/10/28 09:53:37;;;;;;;16.30;10.50;;;;;;;15.03;85.91;99368.14;106474;1312;22179;-76
2022/10/28 09:56:05;;;;;;;15.60;10.70;;;;;;;15.13;85.70;99366.48;106543;1312;22886;-76
2022/10/28 09:58:35;;;;;;;21.10;10.70;;;;;;;15.23;85.02;99361.87;106346;1302;138331;-76
2022/10/28 10:01:03;;;;;;;23.40;11.10;;;;;;;15.32;84.85;99359.09;106589;1310;23016;-76
2022/10/28 10:03:30;;;;;;;18.20;10.50;;;;;;;15.38;84.39;99357.80;106472;1312;138516;-76
2022/10/28 10:06:10;;;;;;;25.80;10.20;;;;;;;15.46;83.99;99360.31;106541;1294;22293;-76
2022/10/28 10:08:39;;;;;;;20.30;10.30;;;;;;;15.55;83.88;99358.95;106584;1302;138687;-76
2022/10/28 10:11:30;;;;;;;18.50;10.40;;;;;;;15.64;83.61;99358.13;106622;1311;22164;-75
2022/10/28 10:14:02;;;;;;;22.40;10.20;;;;;;;15.77;83.04;99356.93;106624;1311;22144;-76
2022/10/28 10:17:08;;;;;;;15.80;9.30;;;;;;;15.88;82.30;99360.58;106323;1313;138528;-75
2022/10/28 10:20:05;;;;;;;20.80;8.70;;;;;;;16.01;81.65;99358.23;106600;1299;22059;-75
2022/10/28 10:22:39;;;;;;;14.10;8.50;;;;;;;16.13;80.80;99360.63;106436;1312;138004;-76
2022/10/28 10:25:17;;;;;;;12.00;8.30;;;;;;;16.24;80.73;99358.86;106513;1310;22141;-76
2022/10/28 10:28:00;;;;;;;13.70;8.50;;;;;;;16.37;80.59;99356.63;106449;1310;138257;-76
2022/10/28 10:30:43;;;;;;;14.20;9.00;;;;;;;16.47;80.01;99358.25;106862;1291;22087;-76
2022/10/28 10:33:20;;;;;;;18.30;9.00;;;;;;;16.60;80.20;99348.84;106507;1310;138390;-76
2022/10/28 10:35:55;;;;;;;15.00;8.50;;;;;;;16.71;79.17;99350.47;106572;1310;22862;-76
2022/10/28 10:38:21;;;;;;;22.30;8.70;;;;;;;16.82;78.91;99343.41;106507;1310;138430;-76
2022/10/28 10:40:51;;;;;;;14.00;7.90;;;;;;;16.93;78.54;99339.58;106519;1299;22121;-76
2022/10/28 10:43:17;;;;;;;13.00;8.90;;;;;;;17.03;77.89;99331.61;106782;1303;23112;-76
2022/10/28 10:46:14;;;;;;;14.00;8.00;;;;;;;17.11;78.01;99329.75;106421;1310;138627;-76
2022/10/28 10:48:41;;;;;;;13.00;8.40;;;;;;;17.24;77.27;99329.33;106570;1292;22267;-76
2022/10/28 10:51:14;;;;;;;14.10;8.40;;;;;;;17.33;77.04;99326.82;106364;1310;138694;-76
2022/10/28 10:53:46;;;;;;;12.90;8.10;;;;;;;17.43;76.71;99332.70;106610;1310;22160;-77
2022/10/28 10:56:23;;;;;;;17.50;9.20;;;;;;;17.55;76.52;99337.32;106464;1310;138591;-76
2022/10/28 10:58:51;;;;;;;14.60;8.20;;;;;;;17.67;76.13;99332.98;106617;1310;22209;-76
2022/10/28 11:01:24;;;;;;;12.50;7.70;;;;;;;17.78;75.24;99334.44;106536;1310;22156;-76
2022/10/28 11:04:04;;;;;;;13.60;8.20;;;;;;;17.88;74.59;99330.80;106331;1311;138362;-76
2022/10/28 11:06:36;;;;;;;13.60;8.00;;;;;;;17.98;74.47;99330.44;106539;1310;22168;-76
2022/10/28 11:09:18;;;;;;;13.80;7.50;;;;;;;18.01;73.94;99328.07;106428;1296;138372;-76
2022/10/28 11:11:44;;;;;;;15.40;8.50;;;;;;;18.02;73.83;99332.05;106630;1310;22385;-76
2022/10/28 11:14:12;;;;;;;12.90;8.00;;;;;;;18.06;73.64;99325.98;106618;1310;22087;-76
2022/10/28 11:17:21;;;;;;;10.50;7.10;;;;;;;18.14;73.46;99319.33;106569;1307;22240;-76
2022/10/28 11:19:52;;;;;;;12.80;7.50;;;;;;;18.19;73.64;99317.91;106571;1304;22863;-76
2022/10/28 11:22:21;;;;;;;11.30;7.60;;;;;;;18.19;73.10;99318.89;106354;1310;138686;-76
2022/10/28 11:25:25;;;;;;;15.50;7.60;;;;;;;18.19;72.83;99315.52;106559;1306;22675;-76
2022/10/28 11:28:15;;;;;;;12.40;7.70;;;;;;;18.24;72.76;99311.13;106755;1302;138388;-76
2022/10/28 11:31:03;;;;;;;18.10;7.10;;;;;;;18.31;72.66;99310.19;106488;1295;22140;-79